• Join FlightAware (Why Join?)
  • Login
  • US Flag 
01:22PM EST


 

Airport Tracker/Info


-or-


 

Live Flight TrackerFlight Track Log ✈ UAL573 ✈ 24-Jul-2013 ✈ KSAN - KSFO

Flight Track Log - Related Links

Times and Time Zones

All times are in EDT time to prevent confusion due to time zone crossing. See the UAL573 flight status page for this flight to view local times or setup timezone preferences in your user account.

Time Position Orientation Groundspeed Altitude Reporting Facility
EDT Latitude Longitude Course Direction KTS MPH feet Rate Location/Type
04:36PM 32.7667 -117.2500 289° West 191 220 2,300  Level Southern California TRACON
04:37PM 32.8061 -117.3244 302° West 242 278 5,400 2,820 Climbing Los Angeles Center
04:38PM 32.9526 -117.4955 309° West  Level FlightAware Approximate
04:38PM 32.8567 -117.3919 312° West 267 307 8,700  Level Los Angeles Center
04:39PM 33.0246 -117.6011 310° West  Level FlightAware Approximate
04:40PM 33.0954 -117.7075 301° West  Level FlightAware Approximate
04:40PM 32.9117 -117.4656 312° West 293 337 10,900  Level Los Angeles Center
04:41PM 33.1650 -117.8134 301° West  Level FlightAware Approximate
04:41PM 32.9764 -117.5567 310° West 352 405 11,900  Level Los Angeles Center
04:42PM 33.2063 -117.9387 289° West  Level FlightAware Approximate
04:42PM 33.0522 -117.6581 312° West 400 460 14,000  Level Los Angeles Center
04:43PM 33.1278 -117.7617 311° West 412 474 15,900 1,800 Climbing Los Angeles Center
04:44PM 33.2058 -117.9117 302° West 444 511 17,800 1,800 Climbing Los Angeles Center
04:45PM 33.2522 -118.0514 292° West 452 520 19,700 2,460 Climbing Los Angeles Center
04:46PM 33.2989 -118.1853 293° West 431 496 22,900 2,400 Climbing Los Angeles Center
04:47PM 33.3400 -118.3147 291° West 416 479 24,700 1,500 Climbing Los Angeles Center
04:48PM 33.3978 -118.4403 299° West 436 502 26,000 600 Climbing Los Angeles Center
04:49PM 33.5000 -118.5253 325° Northwest 444 511 26,000  Level Los Angeles Center
04:50PM 33.6008 -118.6133 324° Northwest 444 511 26,000  Level Los Angeles Center
04:51PM 33.7225 -118.7156 325° Northwest 440 506 26,000 360 Level Los Angeles Center
04:52PM 33.8236 -118.8019 325° Northwest 441 507 26,800 1,020 Climbing Los Angeles Center
04:53PM 33.9264 -118.8881 325° Northwest 447 514 28,200 1,380 Climbing Los Angeles Center
04:54PM 34.0314 -118.9786 324° Northwest 458 527 29,700 1,500 Climbing Los Angeles Center
04:55PM 34.1264 -119.0825 318° Northwest 462 532 31,300 1,440 Climbing Los Angeles Center
04:56PM 34.1997 -119.2056 306° West 453 521 32,700 1,620 Climbing Los Angeles Center
04:57PM 34.2825 -119.3586 303° West 452 520 34,700 1,680 Climbing Los Angeles Center
04:58PM 34.3519 -119.4831 304° West 446 513 36,200 1,440 Climbing Los Angeles Center
04:59PM 34.4181 -119.6067 303° West 438 504 37,700 840 Climbing Los Angeles Center
05:00PM 34.4828 -119.7250 304° West 431 496 38,000 120 Climbing Los Angeles Center
05:01PM 34.5636 -119.8328 312° West 430 495 38,000  Level Los Angeles Center
05:02PM 34.6678 -119.9439 319° Northwest 438 504 38,000  Level Los Angeles Center
05:03PM 34.7600 -120.0428 319° Northwest 441 507 38,000 -60 Level Los Angeles Center
05:04PM 34.8492 -120.1397 318° Northwest 442 509 37,900 -60 Descending Los Angeles Center
05:05PM 34.9386 -120.2397 318° Northwest 441 507 37,900  Level Los Angeles Center
05:06PM 35.0481 -120.3606 318° Northwest 448 516 38,000  Climbing Los Angeles Center
05:07PM 35.1394 -120.4608 318° Northwest 449 517 38,000 -60 Level Los Angeles Center
05:08PM 35.2300 -120.5619 318° Northwest 451 519 37,900 -60 Descending Los Angeles Center
05:10PM 35.3203 -120.6642 317° Northwest 447 514 37,900  Level Los Angeles Center
05:11PM 35.4031 -120.7672 315° West 429 494 37,900  Level Los Angeles Center
05:12PM 35.4211 -120.9214 278° West 389 448 37,900  Level Los Angeles Center
05:13PM 35.4214 -121.0508 270° West 383 441 37,900  Level Los Angeles Center
05:14PM 35.4217 -121.1819 270° West 385 443 37,900 -540 Level Los Angeles Center
05:15PM 35.4242 -121.3136 271° West 387 445 36,900 -1,380 Descending Los Angeles Center
05:16PM 35.4647 -121.4358 292° West 389 448 35,100 -1,620 Descending Los Angeles Center
05:18PM 35.6186 -121.6619 310° West 385 443 31,700 -1,560 Descending Oakland Center
05:19PM 35.7286 -121.6894 349° North 394 453 30,200 -1,380 Descending Oakland Center
05:20PM 35.8344 -121.7189 347° North 387 445 28,900 -1,260 Descending Oakland Center
05:21PM 35.9367 -121.7458 348° North 375 432 27,600 -1,320 Descending Oakland Center
05:22PM 36.0342 -121.7739 347° North 363 418 26,200 -1,380 Descending Oakland Center
05:23PM 36.1322 -121.7994 348° North 356 410 24,800 -1,500 Descending Oakland Center
05:24PM 36.2425 -121.8289 348° North 351 404 23,200 -1,440 Descending Oakland Center
05:25PM 36.3336 -121.8550 347° North 338 389 21,900 -1,320 Descending Oakland Center
05:26PM 36.4253 -121.8814 347° North 336 387 20,500 -1,020 Descending Oakland Center
05:27PM 36.5128 -121.9042 348° North 321 369 19,900 -780 Descending Oakland Center
05:28PM 36.5978 -121.9278 347° North 313 360 19,000 -1,080 Descending Oakland Center
05:29PM 36.6833 -121.9517 347° North 312 359 17,700 -1,500 Descending Oakland Center
05:30PM 36.7917 -121.9797 348° North 330 380 16,000 -1,620 Descending Oakland Center
05:31PM 36.8847 -122.0000 350° North 336 387 14,400 -1,560 Descending Oakland Center
05:32PM 36.9731 -122.0244 348° North 326 375 12,900 -1,500 Descending Oakland Center
05:33PM 37.0581 -122.0478 348° North 314 361 11,400 -1,440 Descending Oakland Center
05:34PM 37.1389 -122.0681 349° North 300 345 10,000 -780 Descending Oakland Center
05:35PM 37.2211 -122.0889 349° North 299 344 9,900 -540 Descending Oakland Center
05:36PM 37.2653 -122.1575 309° West 254 292 9,000 -1,200 Descending Oakland Center
05:37PM 37.3417 -122.1578 360° North 245 282 7,500 -1,200 Descending Oakland Center
05:38PM 37.4083 -122.1364 14° North 246 283 6,600 -840 Descending Oakland Center
05:40PM 37.4667 -122.1167 15° North 201 231 5,800 -1,020 Descending Northern Cal TRACON
05:41PM 37.5167 -122.1000 15° North 206 237 4,600 -1,200 Descending Northern Cal TRACON
05:42PM 37.5333 -122.1667 288° West 200 230 3,400 -1,200 Descending Northern Cal TRACON